Time;durP1;ratioP1;P1;durP2;ratioP2;P2;SDS_P1;SDS_P2;PMS_P1;PMS_P2;Temp;Humidity;BMP_temperature;BMP_pressure;BME280_temperature;BME280_humidity;BME280_pressure;Samples;Min_cycle;Max_cycle;Signal;HPM_P1;HPM_P2
2023/11/11 00:00:17;;;;;;;4.47;1.25;;;;;;;;;;5019652;28;20034;-76
2023/11/11 00:02:42;;;;;;;4.78;1.35;;;;;;;;;;5017911;28;20163;-77
2023/11/11 00:05:07;;;;;;;3.65;1.40;;;;;;;;;;5016229;28;20108;-77
2023/11/11 00:07:32;;;;;;;4.47;1.40;;;;;;;;;;5016778;28;20264;-77
2023/11/11 00:09:58;;;;;;;2.85;1.45;;;;;;;;;;5020524;28;20033;-76
2023/11/11 00:12:24;;;;;;;2.80;1.25;;;;;;;;;;5019481;28;20032;-76
2023/11/11 00:14:50;;;;;;;6.40;1.30;;;;;;;;;;5024245;28;20025;-76
2023/11/11 00:17:15;;;;;;;3.78;1.33;;;;;;;;;;5021161;28;20032;-77
2023/11/11 00:19:42;;;;;;;3.20;1.35;;;;;;;;;;5015683;28;20037;-76
2023/11/11 00:22:10;;;;;;;5.00;1.55;;;;;;;;;;5020555;28;20033;-77
2023/11/11 00:24:35;;;;;;;3.13;1.08;;;;;;;;;;5018440;28;20041;-77
2023/11/11 00:27:00;;;;;;;5.70;1.55;;;;;;;;;;5022421;28;20136;-77
2023/11/11 00:29:26;;;;;;;5.35;2.10;;;;;;;;;;5021058;28;20030;-77
2023/11/11 00:31:51;;;;;;;3.05;1.40;;;;;;;;;;5014698;28;20057;-77
2023/11/11 00:34:18;;;;;;;3.30;1.20;;;;;;;;;;5022102;28;20022;-77
2023/11/11 00:36:45;;;;;;;3.97;1.42;;;;;;;;;;5018050;28;20072;-76
2023/11/11 00:39:13;;;;;;;3.38;1.00;;;;;;;;;;5019699;28;20485;-76
2023/11/11 00:41:38;;;;;;;3.60;1.13;;;;;;;;;;5018864;28;20030;-77
2023/11/11 00:44:09;;;;;;;3.13;1.35;;;;;;;;;;5019427;28;20091;-77
2023/11/11 00:46:37;;;;;;;3.15;1.27;;;;;;;;;;5014505;28;20030;-77
2023/11/11 00:49:02;;;;;;;5.03;1.10;;;;;;;;;;5032761;28;20029;-76
2023/11/11 00:51:27;;;;;;;5.80;1.30;;;;;;;;;;5023833;28;20026;-77
2023/11/11 00:53:53;;;;;;;3.42;1.35;;;;;;;;;;5021481;28;20037;-77
2023/11/11 00:56:18;;;;;;;4.63;1.45;;;;;;;;;;5026619;28;20030;-76
2023/11/11 00:58:43;;;;;;;4.70;2.13;;;;;;;;;;5017198;28;20029;-76
2023/11/11 01:01:09;;;;;;;4.80;2.30;;;;;;;;;;5015770;28;20033;-76
2023/11/11 01:03:35;;;;;;;8.32;1.85;;;;;;;;;;5022851;28;20038;-77
2023/11/11 01:06:00;;;;;;;4.85;1.70;;;;;;;;;;5034791;28;20049;-77
2023/11/11 01:08:25;;;;;;;6.00;1.83;;;;;;;;;;5034199;28;20029;-76
2023/11/11 01:10:50;;;;;;;7.53;2.58;;;;;;;;;;5030581;28;20025;-76
2023/11/11 01:13:16;;;;;;;7.30;2.55;;;;;;;;;;5028713;28;20030;-76
2023/11/11 01:15:41;;;;;;;6.68;2.47;;;;;;;;;;5030285;28;20025;-77
2023/11/11 01:18:06;;;;;;;7.78;2.13;;;;;;;;;;5016846;28;20083;-76
2023/11/11 01:20:31;;;;;;;9.68;2.88;;;;;;;;;;5035168;28;20028;-76
2023/11/11 01:22:57;;;;;;;10.02;2.75;;;;;;;;;;5019092;28;20489;-76
2023/11/11 01:25:22;;;;;;;8.15;2.47;;;;;;;;;;5016218;28;20061;-76
2023/11/11 01:27:47;;;;;;;7.63;3.33;;;;;;;;;;5028885;28;20033;-76
2023/11/11 01:30:13;;;;;;;10.43;3.30;;;;;;;;;;5014129;28;20034;-77
2023/11/11 01:32:38;;;;;;;9.25;2.33;;;;;;;;;;5030521;28;20018;-77
2023/11/11 01:35:04;;;;;;;9.02;2.90;;;;;;;;;;5019701;28;20460;-77
2023/11/11 01:37:29;;;;;;;5.63;1.98;;;;;;;;;;5034315;28;20026;-76
2023/11/11 01:39:54;;;;;;;5.13;2.33;;;;;;;;;;5028801;28;20037;-75
2023/11/11 01:42:20;;;;;;;8.48;2.50;;;;;;;;;;5021129;28;20033;-76
2023/11/11 01:44:45;;;;;;;6.03;2.50;;;;;;;;;;5017293;28;20084;-75
2023/11/11 01:47:10;;;;;;;7.97;2.95;;;;;;;;;;5017772;28;20033;-75
2023/11/11 01:49:36;;;;;;;5.05;2.03;;;;;;;;;;5016527;28;20041;-75
2023/11/11 01:52:02;;;;;;;4.65;2.17;;;;;;;;;;5021689;28;20037;-75
2023/11/11 01:54:28;;;;;;;5.45;2.33;;;;;;;;;;5016275;28;20018;-76
2023/11/11 01:56:54;;;;;;;4.90;2.20;;;;;;;;;;5030039;28;20048;-76
2023/11/11 01:59:20;;;;;;;6.75;2.42;;;;;;;;;;5014455;28;20029;-75
2023/11/11 02:01:45;;;;;;;7.00;2.08;;;;;;;;;;5030750;28;20025;-75
2023/11/11 02:04:11;;;;;;;6.85;2.30;;;;;;;;;;5018004;28;20018;-75
2023/11/11 02:06:36;;;;;;;5.90;2.72;;;;;;;;;;5016940;28;20091;-75
2023/11/11 02:09:01;;;;;;;6.40;2.63;;;;;;;;;;5016322;28;20041;-76
2023/11/11 02:11:26;;;;;;;6.13;2.78;;;;;;;;;;5018656;28;20017;-76
2023/11/11 02:13:52;;;;;;;4.97;2.22;;;;;;;;;;5032639;28;20513;-75
2023/11/11 02:16:17;;;;;;;5.65;2.10;;;;;;;;;;5015756;28;20021;-75
2023/11/11 02:18:44;;;;;;;4.63;1.85;;;;;;;;;;5019866;28;20018;-76
2023/11/11 02:21:09;;;;;;;3.20;1.60;;;;;;;;;;5020794;28;20441;-76
2023/11/11 02:23:34;;;;;;;4.63;1.67;;;;;;;;;;5012840;28;20042;-76
2023/11/11 02:26:01;;;;;;;5.95;1.65;;;;;;;;;;5022058;28;20029;-77
2023/11/11 02:28:27;;;;;;;3.80;1.50;;;;;;;;;;5015741;28;20112;-76
2023/11/11 02:30:52;;;;;;;4.50;2.00;;;;;;;;;;5034680;28;20120;-76
2023/11/11 02:33:17;;;;;;;4.45;1.73;;;;;;;;;;5018690;28;20153;-76
2023/11/11 02:35:43;;;;;;;4.72;1.92;;;;;;;;;;5019097;28;20084;-76
2023/11/11 02:38:08;;;;;;;4.20;1.52;;;;;;;;;;5021343;28;20124;-76
2023/11/11 02:40:33;;;;;;;4.22;1.95;;;;;;;;;;5013708;28;20037;-76
2023/11/11 02:42:58;;;;;;;6.35;1.55;;;;;;;;;;5019432;28;20095;-76
2023/11/11 02:45:25;;;;;;;6.95;2.92;;;;;;;;;;5023863;28;20486;-76
2023/11/11 02:47:50;;;;;;;3.72;1.30;;;;;;;;;;5021647;28;20057;-76
2023/11/11 02:50:15;;;;;;;2.78;1.10;;;;;;;;;;5012656;28;20454;-76
2023/11/11 02:52:41;;;;;;;6.32;1.40;;;;;;;;;;5013043;28;20033;-76
2023/11/11 02:55:07;;;;;;;3.70;1.45;;;;;;;;;;5017229;28;20022;-76
2023/11/11 02:57:32;;;;;;;4.93;1.35;;;;;;;;;;5033547;28;20372;-76
2023/11/11 02:59:59;;;;;;;4.88;1.88;;;;;;;;;;5024595;28;20044;-76
2023/11/11 03:02:25;;;;;;;4.93;1.30;;;;;;;;;;5022494;28;20041;-76
2023/11/11 03:04:50;;;;;;;3.55;1.55;;;;;;;;;;5022578;28;20116;-75
2023/11/11 03:07:17;;;;;;;3.15;1.20;;;;;;;;;;5024211;28;20159;-76
2023/11/11 03:09:42;;;;;;;5.53;1.38;;;;;;;;;;5034508;28;20461;-76
2023/11/11 03:12:09;;;;;;;2.65;1.20;;;;;;;;;;5021987;28;20067;-76
2023/11/11 03:14:35;;;;;;;2.38;0.98;;;;;;;;;;5038078;28;20113;-75
2023/11/11 03:17:00;;;;;;;3.45;1.00;;;;;;;;;;5020465;28;20109;-76
2023/11/11 03:19:25;;;;;;;4.82;1.20;;;;;;;;;;5016432;28;20030;-76
2023/11/11 03:21:50;;;;;;;3.35;1.25;;;;;;;;;;5018263;28;20107;-76
2023/11/11 03:24:15;;;;;;;2.90;1.25;;;;;;;;;;5026543;28;20619;-76
2023/11/11 03:26:41;;;;;;;4.05;1.27;;;;;;;;;;5028487;28;20030;-75
2023/11/11 03:29:06;;;;;;;3.70;1.58;;;;;;;;;;5023119;28;20604;-75
2023/11/11 03:31:31;;;;;;;6.45;1.63;;;;;;;;;;5034956;28;20025;-76
2023/11/11 03:33:57;;;;;;;5.32;1.48;;;;;;;;;;5024856;28;20398;-75
2023/11/11 03:36:22;;;;;;;4.72;1.52;;;;;;;;;;5017557;28;20383;-76
2023/11/11 03:38:48;;;;;;;4.28;1.50;;;;;;;;;;5035942;28;20026;-76
2023/11/11 03:41:13;;;;;;;4.63;1.50;;;;;;;;;;5037007;28;20140;-76
2023/11/11 03:43:39;;;;;;;2.58;1.20;;;;;;;;;;5023284;28;20072;-76
2023/11/11 03:46:05;;;;;;;4.05;1.48;;;;;;;;;;5020619;28;20081;-77
2023/11/11 03:48:30;;;;;;;2.92;1.23;;;;;;;;;;5018226;28;20025;-77
2023/11/11 03:50:55;;;;;;;4.88;1.30;;;;;;;;;;5021526;28;20129;-77
2023/11/11 03:53:21;;;;;;;2.80;1.13;;;;;;;;;;5019089;28;20036;-76
2023/11/11 03:55:46;;;;;;;3.40;1.67;;;;;;;;;;5021251;28;20026;-77
2023/11/11 03:58:12;;;;;;;5.03;1.50;;;;;;;;;;5023116;28;20573;-77
2023/11/11 04:00:38;;;;;;;5.32;1.75;;;;;;;;;;5024073;28;20025;-76
2023/11/11 04:03:03;;;;;;;4.57;1.60;;;;;;;;;;5016691;28;20113;-75
2023/11/11 04:05:28;;;;;;;4.53;1.55;;;;;;;;;;5018002;28;20414;-76
2023/11/11 04:07:53;;;;;;;3.65;1.38;;;;;;;;;;5026482;28;20034;-76
2023/11/11 04:10:20;;;;;;;2.92;1.63;;;;;;;;;;5036243;28;20029;-76
2023/11/11 04:12:45;;;;;;;2.97;1.40;;;;;;;;;;5022980;28;20018;-75
2023/11/11 04:15:11;;;;;;;7.35;1.40;;;;;;;;;;5021663;28;20084;-76
2023/11/11 04:17:43;;;;;;;4.07;1.85;;;;;;;;;;5016700;28;20116;-76
2023/11/11 04:20:12;;;;;;;5.65;2.13;;;;;;;;;;5031727;28;20033;-76
2023/11/11 04:22:38;;;;;;;4.50;1.70;;;;;;;;;;5027113;28;20426;-75
2023/11/11 04:25:05;;;;;;;4.90;1.48;;;;;;;;;;5020980;28;20032;-76
2023/11/11 04:27:32;;;;;;;7.13;1.60;;;;;;;;;;5024904;28;20034;-75
2023/11/11 04:29:57;;;;;;;3.42;1.65;;;;;;;;;;5024589;28;20395;-76
2023/11/11 04:32:23;;;;;;;4.30;1.70;;;;;;;;;;5016091;28;20053;-77
2023/11/11 04:34:49;;;;;;;5.72;1.70;;;;;;;;;;5024874;28;20510;-76
2023/11/11 04:37:14;;;;;;;5.22;1.90;;;;;;;;;;5020948;28;20061;-77
2023/11/11 04:39:41;;;;;;;5.50;1.55;;;;;;;;;;5026951;28;20118;-77
2023/11/11 04:42:06;;;;;;;3.28;1.50;;;;;;;;;;5016538;28;20522;-76
2023/11/11 04:44:31;;;;;;;3.47;1.60;;;;;;;;;;5019398;28;20030;-76
2023/11/11 04:46:58;;;;;;;4.00;1.60;;;;;;;;;;5018920;28;20037;-76
2023/11/11 04:49:24;;;;;;;4.35;2.03;;;;;;;;;;5015420;28;20401;-75
2023/11/11 04:51:49;;;;;;;3.42;1.40;;;;;;;;;;5020601;28;20036;-76
2023/11/11 04:54:14;;;;;;;3.65;1.58;;;;;;;;;;5018709;28;20128;-76
2023/11/11 04:56:40;;;;;;;5.13;1.75;;;;;;;;;;5014046;28;20954;-74
2023/11/11 04:59:05;;;;;;;4.00;1.92;;;;;;;;;;5016957;28;20493;-76
2023/11/11 05:01:30;;;;;;;3.88;2.10;;;;;;;;;;5016910;28;20034;-76
2023/11/11 05:03:55;;;;;;;4.97;1.75;;;;;;;;;;5028351;28;20034;-75
2023/11/11 05:06:21;;;;;;;3.83;1.88;;;;;;;;;;5020278;28;20022;-75
2023/11/11 05:08:46;;;;;;;3.78;1.83;;;;;;;;;;5016952;28;20034;-75
2023/11/11 05:11:12;;;;;;;5.22;2.25;;;;;;;;;;5015062;28;20041;-76
2023/11/11 05:13:41;;;;;;;6.93;2.17;;;;;;;;;;5018104;28;20033;-75
2023/11/11 05:16:20;;;;;;;4.05;2.28;;;;;;;;;;5026264;28;20501;-75
2023/11/11 05:18:45;;;;;;;6.10;2.70;;;;;;;;;;5013608;28;20014;-75
2023/11/11 05:21:11;;;;;;;6.88;2.58;;;;;;;;;;5021230;28;20445;-75
2023/11/11 05:23:37;;;;;;;6.72;2.55;;;;;;;;;;5016780;28;20497;-74
2023/11/11 05:26:03;;;;;;;5.43;2.75;;;;;;;;;;5010824;28;20416;-75
2023/11/11 05:28:28;;;;;;;4.47;2.25;;;;;;;;;;5016125;28;20117;-75
2023/11/11 05:30:53;;;;;;;4.68;2.35;;;;;;;;;;5018459;28;20041;-76
2023/11/11 05:33:18;;;;;;;9.55;3.38;;;;;;;;;;5019343;28;20117;-76
2023/11/11 05:35:43;;;;;;;6.50;3.60;;;;;;;;;;5015277;28;20034;-77
2023/11/11 05:38:09;;;;;;;6.07;3.10;;;;;;;;;;5021667;28;20022;-77
2023/11/11 05:40:34;;;;;;;9.00;2.95;;;;;;;;;;5018018;28;20549;-77
2023/11/11 05:43:00;;;;;;;6.03;3.17;;;;;;;;;;5018955;28;20037;-76
2023/11/11 05:45:25;;;;;;;5.13;2.20;;;;;;;;;;5020340;28;20040;-77
2023/11/11 05:47:50;;;;;;;4.88;2.50;;;;;;;;;;5021770;28;20037;-77
2023/11/11 05:50:16;;;;;;;5.80;2.75;;;;;;;;;;5017157;28;20048;-77
2023/11/11 05:52:41;;;;;;;10.77;3.42;;;;;;;;;;5014132;28;20037;-77
2023/11/11 05:55:08;;;;;;;4.80;2.95;;;;;;;;;;5017298;28;20026;-76
2023/11/11 05:57:33;;;;;;;6.18;3.40;;;;;;;;;;5017101;28;20084;-77
2023/11/11 05:59:59;;;;;;;7.18;3.03;;;;;;;;;;5018588;28;20056;-76
2023/11/11 06:02:25;;;;;;;6.43;2.10;;;;;;;;;;5014955;28;20093;-77
2023/11/11 06:04:50;;;;;;;8.13;2.97;;;;;;;;;;5022384;28;20041;-77
2023/11/11 06:07:15;;;;;;;7.30;3.10;;;;;;;;;;5016190;28;20033;-76
2023/11/11 06:09:40;;;;;;;5.45;2.60;;;;;;;;;;5013760;28;20034;-75
2023/11/11 06:12:06;;;;;;;7.13;3.03;;;;;;;;;;5016928;28;20037;-77
2023/11/11 06:14:31;;;;;;;8.50;3.90;;;;;;;;;;5017780;28;20022;-77
2023/11/11 06:16:57;;;;;;;6.90;2.97;;;;;;;;;;5021310;28;20061;-76
2023/11/11 06:19:24;;;;;;;6.25;3.28;;;;;;;;;;5032460;28;20486;-77
2023/11/11 06:21:49;;;;;;;7.32;3.05;;;;;;;;;;5010261;28;20032;-75
2023/11/11 06:24:14;;;;;;;6.13;2.78;;;;;;;;;;5016992;28;20104;-76
2023/11/11 06:26:40;;;;;;;6.38;2.65;;;;;;;;;;5024433;28;20017;-77
2023/11/11 06:29:06;;;;;;;5.93;2.63;;;;;;;;;;5020952;28;20439;-76
2023/11/11 06:31:32;;;;;;;5.30;1.98;;;;;;;;;;5017044;28;20034;-77
2023/11/11 06:33:58;;;;;;;7.22;2.90;;;;;;;;;;5013758;28;20449;-79
2023/11/11 06:36:23;;;;;;;4.75;2.47;;;;;;;;;;5016413;28;20487;-77
2023/11/11 06:38:49;;;;;;;8.00;3.17;;;;;;;;;;5007435;28;20030;-76
2023/11/11 06:41:14;;;;;;;8.63;3.22;;;;;;;;;;5015146;28;20038;-76
2023/11/11 06:43:39;;;;;;;4.95;2.25;;;;;;;;;;5019373;28;20034;-75
2023/11/11 06:46:08;;;;;;;4.97;2.58;;;;;;;;;;5018409;28;20083;-77
2023/11/11 06:48:33;;;;;;;5.63;2.28;;;;;;;;;;5017166;28;20083;-75
2023/11/11 06:50:59;;;;;;;6.88;2.22;;;;;;;;;;5022203;28;20037;-76
2023/11/11 06:53:24;;;;;;;6.93;2.38;;;;;;;;;;5020832;28;20397;-77
2023/11/11 06:55:49;;;;;;;5.47;2.80;;;;;;;;;;5026818;28;20124;-76
2023/11/11 06:58:15;;;;;;;4.65;2.00;;;;;;;;;;5020528;28;20088;-77
2023/11/11 07:00:41;;;;;;;4.75;1.95;;;;;;;;;;5015839;28;20032;-76
2023/11/11 07:03:06;;;;;;;6.90;2.05;;;;;;;;;;5021607;28;20040;-76
2023/11/11 07:05:32;;;;;;;6.80;2.63;;;;;;;;;;5014910;28;20113;-76
2023/11/11 07:07:57;;;;;;;6.13;2.40;;;;;;;;;;5018206;28;20409;-76
2023/11/11 07:10:22;;;;;;;6.15;2.28;;;;;;;;;;5024765;28;20116;-77
2023/11/11 07:12:47;;;;;;;4.35;2.30;;;;;;;;;;5020876;28;20398;-76
2023/11/11 07:15:13;;;;;;;5.07;2.70;;;;;;;;;;5016141;28;20645;-77
2023/11/11 07:17:41;;;;;;;6.90;3.60;;;;;;;;;;5013819;28;20030;-77
2023/11/11 07:20:10;;;;;;;6.50;3.63;;;;;;;;;;5016469;28;20046;-76
2023/11/11 07:22:35;;;;;;;5.93;3.10;;;;;;;;;;5018538;28;20037;-76
2023/11/11 07:25:00;;;;;;;7.88;3.47;;;;;;;;;;5011299;28;20030;-76
2023/11/11 07:27:25;;;;;;;6.55;3.58;;;;;;;;;;5012765;28;20034;-75
2023/11/11 07:29:51;;;;;;;6.72;3.25;;;;;;;;;;5012101;28;20030;-76
2023/11/11 07:32:17;;;;;;;8.90;3.95;;;;;;;;;;5017185;28;20037;-76
2023/11/11 07:34:43;;;;;;;6.47;3.00;;;;;;;;;;5017792;28;20029;-76
2023/11/11 07:37:09;;;;;;;6.57;3.08;;;;;;;;;;5031832;28;20441;-76
2023/11/11 07:39:34;;;;;;;9.68;4.57;;;;;;;;;;5018389;28;20026;-76
2023/11/11 07:41:59;;;;;;;5.90;3.45;;;;;;;;;;5014168;28;20041;-77
2023/11/11 07:44:25;;;;;;;8.15;4.20;;;;;;;;;;5036452;28;20487;-76
2023/11/11 07:46:50;;;;;;;9.00;4.57;;;;;;;;;;5014845;28;20045;-76
2023/11/11 07:49:15;;;;;;;11.15;5.68;;;;;;;;;;5016615;28;20053;-76
2023/11/11 07:51:41;;;;;;;7.40;3.60;;;;;;;;;;5016988;28;20018;-76
2023/11/11 07:54:06;;;;;;;7.45;3.53;;;;;;;;;;5014080;28;20513;-75
2023/11/11 07:56:34;;;;;;;7.93;4.07;;;;;;;;;;5014982;28;20034;-76
2023/11/11 07:59:00;;;;;;;6.68;3.88;;;;;;;;;;5016670;28;20044;-76
2023/11/11 08:01:25;;;;;;;6.65;3.60;;;;;;;;;;5021196;28;20113;-76
2023/11/11 08:03:51;;;;;;;8.52;4.70;;;;;;;;;;5016043;28;20034;-77
2023/11/11 08:06:16;;;;;;;7.50;3.80;;;;;;;;;;5017845;28;20069;-76
2023/11/11 08:08:41;;;;;;;8.68;4.93;;;;;;;;;;5021668;28;20030;-76
2023/11/11 08:11:08;;;;;;;8.23;5.00;;;;;;;;;;5015401;28;20033;-75
2023/11/11 08:13:35;;;;;;;8.20;4.38;;;;;;;;;;5022467;28;20398;-77
2023/11/11 08:16:00;;;;;;;8.88;3.97;;;;;;;;;;5021832;28;20100;-76
2023/11/11 08:18:25;;;;;;;11.32;4.85;;;;;;;;;;5034996;28;20454;-76
2023/11/11 08:20:51;;;;;;;8.73;4.75;;;;;;;;;;5022074;28;20038;-75
2023/11/11 08:23:16;;;;;;;9.05;5.57;;;;;;;;;;5021371;28;20044;-77
2023/11/11 08:25:41;;;;;;;9.73;6.65;;;;;;;;;;5015150;28;20022;-76
2023/11/11 08:28:07;;;;;;;51.58;31.90;;;;;;;;;;5015282;28;20040;-77
2023/11/11 08:30:33;;;;;;;11.90;5.25;;;;;;;;;;5018711;28;20036;-75
2023/11/11 08:32:59;;;;;;;10.27;5.90;;;;;;;;;;5022035;28;20034;-77
2023/11/11 08:35:25;;;;;;;9.70;5.75;;;;;;;;;;5021273;28;20025;-76
2023/11/11 08:37:50;;;;;;;10.35;3.45;;;;;;;;;;5016056;28;20041;-77
2023/11/11 08:40:17;;;;;;;6.20;3.33;;;;;;;;;;5016640;28;20041;-78
2023/11/11 08:42:42;;;;;;;7.03;2.80;;;;;;;;;;5022161;28;20055;-80
2023/11/11 08:45:09;;;;;;;9.70;4.05;;;;;;;;;;5019980;28;20129;-77
2023/11/11 08:47:35;;;;;;;6.40;3.63;;;;;;;;;;5019875;28;20510;-76
2023/11/11 08:50:03;;;;;;;9.90;4.45;;;;;;;;;;5021730;28;20171;-75
2023/11/11 08:52:28;;;;;;;7.07;3.28;;;;;;;;;;5027968;28;20511;-76
2023/11/11 08:54:54;;;;;;;7.57;3.53;;;;;;;;;;5034959;28;20120;-77
2023/11/11 08:57:19;;;;;;;6.43;3.30;;;;;;;;;;5021046;28;20163;-76
2023/11/11 08:59:45;;;;;;;6.05;3.53;;;;;;;;;;5023922;28;20115;-76
2023/11/11 09:02:10;;;;;;;6.40;3.00;;;;;;;;;;5011805;28;20026;-77
2023/11/11 09:04:35;;;;;;;7.07;3.60;;;;;;;;;;5015641;28;20026;-77
2023/11/11 09:07:02;;;;;;;6.40;2.88;;;;;;;;;;5018857;28;20509;-77
2023/11/11 09:09:28;;;;;;;6.20;3.00;;;;;;;;;;5016892;28;20026;-75
2023/11/11 09:11:54;;;;;;;7.22;3.47;;;;;;;;;;5019331;28;20025;-77
2023/11/11 09:14:19;;;;;;;6.47;2.80;;;;;;;;;;5020721;28;20056;-77
2023/11/11 09:16:44;;;;;;;6.15;3.05;;;;;;;;;;5016464;28;20072;-77
2023/11/11 09:19:09;;;;;;;7.32;3.35;;;;;;;;;;5017478;28;20083;-77
2023/11/11 09:21:38;;;;;;;7.38;3.30;;;;;;;;;;5014297;28;20379;-76
2023/11/11 09:24:05;;;;;;;7.68;3.50;;;;;;;;;;5020330;28;20453;-76
2023/11/11 09:26:30;;;;;;;8.10;3.28;;;;;;;;;;5018519;28;20022;-77
2023/11/11 09:28:55;;;;;;;7.72;3.83;;;;;;;;;;5022246;28;20479;-76
2023/11/11 09:31:20;;;;;;;6.78;3.35;;;;;;;;;;5022389;28;20033;-77
2023/11/11 09:33:46;;;;;;;6.70;3.17;;;;;;;;;;5013993;28;20069;-76
2023/11/11 09:36:11;;;;;;;11.40;3.60;;;;;;;;;;5015804;28;20026;-77
2023/11/11 09:38:37;;;;;;;6.63;2.40;;;;;;;;;;5015715;28;20034;-77
2023/11/11 09:41:03;;;;;;;8.27;3.75;;;;;;;;;;5012674;28;20045;-77
2023/11/11 09:43:29;;;;;;;6.68;2.35;;;;;;;;;;5022864;28;20040;-76
2023/11/11 09:45:54;;;;;;;4.78;2.50;;;;;;;;;;5016201;28;20116;-76
2023/11/11 09:48:20;;;;;;;6.55;3.30;;;;;;;;;;5018253;28;20061;-76
2023/11/11 09:50:45;;;;;;;5.63;2.28;;;;;;;;;;5024270;28;20075;-77
2023/11/11 09:53:12;;;;;;;6.45;2.25;;;;;;;;;;5016754;28;20033;-77
2023/11/11 09:55:38;;;;;;;5.25;2.50;;;;;;;;;;5016306;28;20029;-77
2023/11/11 09:58:04;;;;;;;4.95;2.20;;;;;;;;;;5014502;28;20029;-77
2023/11/11 10:00:30;;;;;;;5.85;2.58;;;;;;;;;;5022335;28;20022;-76
2023/11/11 10:02:56;;;;;;;7.07;2.53;;;;;;;;;;5028887;28;20033;-76
2023/11/11 10:05:21;;;;;;;4.82;2.22;;;;;;;;;;5014218;28;20441;-77
2023/11/11 10:07:47;;;;;;;5.47;2.45;;;;;;;;;;5016954;28;20072;-77
2023/11/11 10:10:13;;;;;;;6.40;2.13;;;;;;;;;;5021015;28;20067;-77
2023/11/11 10:12:39;;;;;;;7.50;3.22;;;;;;;;;;5020063;28;20057;-76
2023/11/11 10:15:05;;;;;;;6.20;2.70;;;;;;;;;;5019363;28;20095;-74
2023/11/11 10:17:35;;;;;;;5.53;2.45;;;;;;;;;;5014100;28;20037;-78
2023/11/11 10:20:04;;;;;;;5.45;2.38;;;;;;;;;;5016067;28;20026;-79
2023/11/11 10:22:29;;;;;;;6.70;2.20;;;;;;;;;;5014524;28;20521;-78
2023/11/11 10:24:56;;;;;;;6.43;2.08;;;;;;;;;;5012199;28;20065;-78
2023/11/11 10:27:21;;;;;;;4.75;2.08;;;;;;;;;;5013687;28;20049;-78
2023/11/11 10:29:47;;;;;;;5.88;2.45;;;;;;;;;;5014692;28;20042;-78
2023/11/11 10:32:12;;;;;;;270.08;160.07;;;;;;;;;;5014626;28;20034;-78
2023/11/11 10:34:38;;;;;;;1999.90;999.90;;;;;;;;;;5029921;28;20111;-78
2023/11/11 10:37:03;;;;;;;1999.90;999.90;;;;;;;;;;5016822;28;20112;-78
2023/11/11 10:39:35;;;;;;;1999.90;999.90;;;;;;;;;;5017851;28;20375;-77
2023/11/11 10:42:01;;;;;;;1999.90;999.90;;;;;;;;;;5015774;28;20038;-77
2023/11/11 10:44:27;;;;;;;1999.90;999.90;;;;;;;;;;5017352;28;20379;-77
2023/11/11 10:46:52;;;;;;;1999.90;999.90;;;;;;;;;;5014031;28;20029;-78
2023/11/11 10:49:18;;;;;;;1999.90;999.90;;;;;;;;;;5029951;28;20437;-78
2023/11/11 10:51:45;;;;;;;1999.90;999.90;;;;;;;;;;5011781;28;20548;-77
2023/11/11 10:54:12;;;;;;;1999.90;999.90;;;;;;;;;;5017191;28;20049;-78
2023/11/11 10:56:38;;;;;;;1999.90;999.90;;;;;;;;;;5016113;28;20029;-77
2023/11/11 10:59:04;;;;;;;1999.90;999.90;;;;;;;;;;5014409;28;20053;-77
2023/11/11 11:01:31;;;;;;;1999.90;999.90;;;;;;;;;;5014250;28;20062;-78
2023/11/11 11:03:56;;;;;;;1999.90;999.90;;;;;;;;;;5016809;28;20042;-77
2023/11/11 11:06:42;;;;;;;1999.90;999.90;;;;;;;;;;5031753;28;20100;-78
2023/11/11 11:09:26;;;;;;;1999.90;999.90;;;;;;;;;;5015660;28;20041;-79
2023/11/11 11:11:57;;;;;;;1999.90;999.90;;;;;;;;;;5013095;28;20461;-79
2023/11/11 11:14:35;;;;;;;1999.90;999.90;;;;;;;;;;5016911;28;20506;-77
2023/11/11 11:17:01;;;;;;;1999.90;999.90;;;;;;;;;;5013831;28;20639;-78
2023/11/11 11:19:26;;;;;;;74.53;69.65;;;;;;;;;;5019584;28;20048;-78
2023/11/11 11:21:52;;;;;;;86.00;82.05;;;;;;;;;;5018256;28;20038;-78
2023/11/11 11:24:18;;;;;;;1999.90;999.90;;;;;;;;;;5020356;28;20057;-81
2023/11/11 11:26:44;;;;;;;1999.90;999.90;;;;;;;;;;5014761;28;20073;-78
2023/11/11 11:29:13;;;;;;;1999.90;999.90;;;;;;;;;;5015960;28;20034;-79
2023/11/11 11:31:57;;;;;;;1999.90;999.90;;;;;;;;;;5013277;28;20067;-78
2023/11/11 11:34:22;;;;;;;1999.90;999.90;;;;;;;;;;5018615;28;20029;-78
2023/11/11 11:37:10;;;;;;;1999.90;999.90;;;;;;;;;;5022025;28;20029;-78
2023/11/11 11:39:41;;;;;;;1999.90;999.90;;;;;;;;;;5013762;28;20486;-77
2023/11/11 11:42:17;;;;;;;1999.90;999.90;;;;;;;;;;5019715;28;20068;-77
2023/11/11 11:44:43;;;;;;;1999.90;999.90;;;;;;;;;;5019987;28;20398;-77
2023/11/11 11:47:08;;;;;;;1999.90;999.90;;;;;;;;;;5020278;28;20033;-77
2023/11/11 11:49:34;;;;;;;1999.90;999.90;;;;;;;;;;5036360;28;20026;-77
2023/11/11 11:51:59;;;;;;;1999.90;999.90;;;;;;;;;;5018054;28;20033;-77
2023/11/11 11:54:26;;;;;;;1999.90;999.90;;;;;;;;;;5016341;28;20026;-77
2023/11/11 11:56:51;;;;;;;1999.90;999.90;;;;;;;;;;5017119;28;20045;-77
2023/11/11 11:59:17;;;;;;;1999.90;999.90;;;;;;;;;;5019220;28;20038;-78
2023/11/11 12:01:42;;;;;;;1999.90;999.90;;;;;;;;;;5013206;28;20394;-77
2023/11/11 12:04:07;;;;;;;1999.90;999.90;;;;;;;;;;5024539;28;20032;-78
2023/11/11 12:06:37;;;;;;;1999.90;999.90;;;;;;;;;;5014620;28;20116;-77
2023/11/11 12:09:06;;;;;;;1999.90;999.90;;;;;;;;;;5016704;28;20042;-77
2023/11/11 12:11:32;;;;;;;1999.90;999.90;;;;;;;;;;5017234;28;20025;-77
2023/11/11 12:14:02;;;;;;;1999.90;999.90;;;;;;;;;;5021497;28;20482;-77
2023/11/11 12:16:41;;;;;;;1999.90;999.90;;;;;;;;;;5020602;28;20061;-78
2023/11/11 12:19:09;;;;;;;1999.90;999.90;;;;;;;;;;5018865;28;20022;-77
2023/11/11 12:21:35;;;;;;;1999.90;999.90;;;;;;;;;;5018013;28;20034;-77
2023/11/11 12:24:01;;;;;;;1999.90;999.90;;;;;;;;;;5016963;28;20091;-77
2023/11/11 12:26:28;;;;;;;1999.90;999.90;;;;;;;;;;5013032;28;20072;-77
2023/11/11 12:28:53;;;;;;;1999.90;999.90;;;;;;;;;;5012378;28;20034;-77
2023/11/11 12:31:18;;;;;;;1999.90;999.90;;;;;;;;;;5018975;28;20062;-77
2023/11/11 12:33:44;;;;;;;1999.90;999.90;;;;;;;;;;5014714;28;20034;-78
2023/11/11 12:36:09;;;;;;;1999.90;999.90;;;;;;;;;;5018695;28;20101;-77
2023/11/11 12:38:35;;;;;;;1999.90;999.90;;;;;;;;;;5015573;28;20026;-78
2023/11/11 12:41:08;;;;;;;1999.90;999.90;;;;;;;;;;5025689;28;20104;-77
2023/11/11 12:43:33;;;;;;;1999.90;999.90;;;;;;;;;;5020276;28;20026;-77
2023/11/11 12:45:59;;;;;;;1999.90;999.90;;;;;;;;;;5023538;28;20609;-77
2023/11/11 12:48:30;;;;;;;1999.90;999.90;;;;;;;;;;5014849;28;20569;-77
2023/11/11 12:50:55;;;;;;;1999.90;999.90;;;;;;;;;;5011713;28;20068;-77
2023/11/11 12:53:21;;;;;;;1999.90;999.90;;;;;;;;;;5017258;28;20065;-77
2023/11/11 12:55:47;;;;;;;1999.90;999.90;;;;;;;;;;5014235;28;20033;-77
2023/11/11 12:58:28;;;;;;;1999.90;999.90;;;;;;;;;;5017117;28;20013;-78
2023/11/11 13:01:04;;;;;;;1999.90;999.90;;;;;;;;;;5016718;28;20030;-77
2023/11/11 13:03:29;;;;;;;1999.90;999.90;;;;;;;;;;5029631;28;20030;-77
2023/11/11 13:05:58;;;;;;;1999.90;999.90;;;;;;;;;;5009850;28;20040;-77
2023/11/11 13:08:24;;;;;;;1999.90;999.90;;;;;;;;;;5015720;28;20044;-77
2023/11/11 13:10:53;;;;;;;1999.90;999.90;;;;;;;;;;5017046;28;20036;-77
2023/11/11 13:13:22;;;;;;;1999.90;999.90;;;;;;;;;;5015179;28;20026;-77
2023/11/11 13:15:50;;;;;;;1999.90;999.90;;;;;;;;;;5012811;28;20033;-77
2023/11/11 13:18:19;;;;;;;1999.90;999.90;;;;;;;;;;5013659;28;20033;-77
2023/11/11 13:20:46;;;;;;;1999.90;999.90;;;;;;;;;;5017616;28;20151;-78
2023/11/11 13:23:12;;;;;;;1999.90;999.90;;;;;;;;;;5008028;28;20490;-78
2023/11/11 13:25:38;;;;;;;1999.90;999.90;;;;;;;;;;5009215;28;20088;-78
2023/11/11 13:28:04;;;;;;;1999.90;999.90;;;;;;;;;;5020384;28;20029;-77
2023/11/11 13:30:29;;;;;;;1999.90;999.90;;;;;;;;;;5021174;28;20018;-78
2023/11/11 13:32:55;;;;;;;1999.90;999.90;;;;;;;;;;5020398;28;20030;-78
2023/11/11 13:35:21;;;;;;;1999.90;999.90;;;;;;;;;;5023637;28;20026;-78
2023/11/11 13:37:46;;;;;;;1999.90;999.90;;;;;;;;;;5027679;28;20033;-78
2023/11/11 13:40:28;;;;;;;1999.90;999.90;;;;;;;;;;5025894;28;20063;-78
2023/11/11 13:42:54;;;;;;;1999.90;999.90;;;;;;;;;;5025027;28;20036;-78
2023/11/11 13:45:19;;;;;;;1999.90;999.90;;;;;;;;;;5023162;28;20034;-78
2023/11/11 13:47:45;;;;;;;1999.90;999.90;;;;;;;;;;5019975;28;20033;-78
2023/11/11 13:50:15;;;;;;;1999.90;999.90;;;;;;;;;;5025856;28;20152;-78
2023/11/11 13:52:40;;;;;;;1999.90;999.90;;;;;;;;;;5026737;28;20482;-78
2023/11/11 13:55:07;;;;;;;1999.90;999.90;;;;;;;;;;5031760;28;20025;-78
2023/11/11 13:57:32;;;;;;;1999.90;999.90;;;;;;;;;;5021518;28;20026;-78
2023/11/11 13:59:59;;;;;;;1999.90;999.90;;;;;;;;;;5036220;28;20027;-77
2023/11/11 14:02:24;;;;;;;1999.90;999.90;;;;;;;;;;5018011;28;20025;-79
2023/11/11 14:04:50;;;;;;;1999.90;999.90;;;;;;;;;;5026299;28;20549;-78
2023/11/11 14:07:16;;;;;;;1999.90;999.90;;;;;;;;;;5026241;28;20036;-78
2023/11/11 14:09:41;;;;;;;1999.90;999.90;;;;;;;;;;5027881;28;20026;-78
2023/11/11 14:12:07;;;;;;;1999.90;999.90;;;;;;;;;;5022701;28;20042;-78
2023/11/11 14:14:32;;;;;;;1999.90;999.90;;;;;;;;;;5023330;28;20068;-79
2023/11/11 14:16:58;;;;;;;1999.90;999.90;;;;;;;;;;5023043;28;20022;-78
2023/11/11 14:19:24;;;;;;;1999.90;999.90;;;;;;;;;;5026335;28;20026;-78